createdAt,value
2023-04-07T00:02:20.524Z,5.10
2023-04-07T00:04:48.106Z,5.10
2023-04-07T00:07:16.036Z,5.10
2023-04-07T00:09:43.551Z,5.10
2023-04-07T00:12:11.209Z,5.10
2023-04-07T00:14:38.753Z,5.10
2023-04-07T00:17:06.365Z,5.10
2023-04-07T00:19:33.870Z,5.10
2023-04-07T00:22:01.575Z,5.10
2023-04-07T00:24:34.335Z,5.10
2023-04-07T00:27:02.566Z,5.10
2023-04-07T00:29:30.218Z,5.00
2023-04-07T00:31:57.840Z,5.00
2023-04-07T00:34:25.436Z,5.00
2023-04-07T00:36:53.413Z,5.00
2023-04-07T00:39:21.558Z,4.90
2023-04-07T00:41:49.216Z,4.90
2023-04-07T00:44:17.188Z,4.90
2023-04-07T00:46:45.550Z,4.90
2023-04-07T00:49:13.440Z,4.90
2023-04-07T00:51:41.479Z,4.90
2023-04-07T00:54:10.357Z,4.90
2023-04-07T00:56:38.213Z,4.90
2023-04-07T00:59:06.287Z,4.90
2023-04-07T01:02:03.683Z,4.90
2023-04-07T01:04:44.590Z,4.90
2023-04-07T01:07:18.730Z,4.90
2023-04-07T01:10:02.629Z,4.80
2023-04-07T01:12:57.939Z,4.80
2023-04-07T01:15:30.205Z,4.80
2023-04-07T01:18:12.978Z,4.80
2023-04-07T01:20:43.382Z,4.70
2023-04-07T01:23:46.424Z,4.70
2023-04-07T01:26:29.792Z,4.60
2023-04-07T01:29:33.955Z,4.60
2023-04-07T01:32:04.550Z,4.50
2023-04-07T01:34:33.048Z,4.50
2023-04-07T01:37:02.821Z,4.40
2023-04-07T01:39:31.040Z,4.30
2023-04-07T01:42:02.348Z,4.30
2023-04-07T01:44:32.529Z,4.30
2023-04-07T01:47:01.261Z,4.20
2023-04-07T01:49:30.877Z,4.20
2023-04-07T01:51:59.594Z,4.20
2023-04-07T01:54:28.274Z,4.20
2023-04-07T01:56:56.671Z,4.10
2023-04-07T01:59:25.448Z,4.10
2023-04-07T02:01:54.049Z,4.00
2023-04-07T02:04:32.438Z,4.00
2023-04-07T02:07:03.136Z,4.00
2023-04-07T02:09:42.464Z,4.00
2023-04-07T02:12:13.454Z,3.90
2023-04-07T02:14:47.608Z,3.90
2023-04-07T02:17:17.714Z,3.90
2023-04-07T02:19:47.826Z,3.90
2023-04-07T02:22:16.568Z,3.90
2023-04-07T02:24:44.251Z,3.90
2023-04-07T02:27:11.830Z,3.80
2023-04-07T02:29:39.422Z,3.80
2023-04-07T02:32:07.113Z,3.80
2023-04-07T02:34:34.758Z,3.80
2023-04-07T02:37:02.479Z,3.80
2023-04-07T02:39:30.029Z,3.70
2023-04-07T02:41:57.616Z,3.70
2023-04-07T02:44:25.320Z,3.60
2023-04-07T02:46:52.885Z,3.60
2023-04-07T02:49:20.421Z,3.60
2023-04-07T02:51:48.023Z,3.60
2023-04-07T02:54:15.642Z,3.50
2023-04-07T02:56:43.871Z,3.40
2023-04-07T02:59:11.688Z,3.30
2023-04-07T03:01:43.364Z,3.10
2023-04-07T03:04:11.503Z,3.00
2023-04-07T03:06:39.191Z,3.00
2023-04-07T03:09:15.470Z,3.10
2023-04-07T03:11:43.237Z,3.10
2023-04-07T03:14:11.151Z,3.00
2023-04-07T03:16:47.984Z,3.00
2023-04-07T03:19:16.519Z,2.90
2023-04-07T03:21:47.538Z,2.80
2023-04-07T03:24:15.193Z,2.70
2023-04-07T03:26:42.790Z,2.70
2023-04-07T03:29:39.801Z,2.70
2023-04-07T03:32:10.512Z,2.70
2023-04-07T03:34:38.872Z,2.70
2023-04-07T03:37:06.492Z,2.70
2023-04-07T03:39:37.524Z,2.60
2023-04-07T03:42:13.470Z,2.60
2023-04-07T03:44:42.599Z,2.60
2023-04-07T03:47:11.318Z,2.60
2023-04-07T03:49:39.780Z,2.70
2023-04-07T03:52:07.781Z,2.70
2023-04-07T03:54:35.520Z,2.80
2023-04-07T03:57:03.851Z,2.90
2023-04-07T03:59:35.901Z,2.90
2023-04-07T04:02:05.509Z,3.00
2023-04-07T04:04:33.444Z,2.90
2023-04-07T04:07:01.922Z,3.00
2023-04-07T04:09:43.341Z,2.90
2023-04-07T04:12:11.936Z,2.70
2023-04-07T04:14:46.982Z,2.70
2023-04-07T04:17:15.939Z,2.60
2023-04-07T04:19:46.757Z,2.60
2023-04-07T04:22:22.307Z,2.50
2023-04-07T04:24:53.888Z,2.50
2023-04-07T04:27:23.586Z,2.40
2023-04-07T04:29:57.286Z,2.40
2023-04-07T04:32:35.155Z,2.40
2023-04-07T04:35:03.318Z,2.40
2023-04-07T04:37:34.810Z,2.40
2023-04-07T04:40:08.619Z,2.40
2023-04-07T04:42:37.205Z,2.30
2023-04-07T04:45:06.051Z,2.20
2023-04-07T04:47:34.277Z,2.20
2023-04-07T04:50:05.884Z,2.10
2023-04-07T04:52:36.146Z,2.10
2023-04-07T04:55:04.125Z,2.00
2023-04-07T04:57:31.760Z,2.00
2023-04-07T05:00:00.856Z,2.00
2023-04-07T05:02:28.595Z,1.90
2023-04-07T05:04:56.474Z,2.00
2023-04-07T05:07:28.692Z,1.90
2023-04-07T05:09:56.829Z,2.00
2023-04-07T05:12:25.130Z,2.00
2023-04-07T05:14:58.704Z,1.90
2023-04-07T05:17:26.319Z,1.90
2023-04-07T05:19:54.444Z,1.90
2023-04-07T05:22:34.654Z,1.80
2023-04-07T05:25:03.247Z,1.90
2023-04-07T05:27:31.044Z,1.80
2023-04-07T05:30:03.486Z,1.80
2023-04-07T05:32:34.816Z,1.90
2023-04-07T05:35:09.432Z,1.90
2023-04-07T05:37:41.831Z,2.00
2023-04-07T05:40:09.917Z,1.90
2023-04-07T05:42:37.493Z,1.80
2023-04-07T05:45:05.975Z,1.80
2023-04-07T05:47:35.475Z,1.80
2023-04-07T05:52:33.250Z,1.80
2023-04-07T05:55:10.093Z,1.90
2023-04-07T05:57:38.528Z,2.00
2023-04-07T06:00:08.375Z,2.00
2023-04-07T06:02:42.046Z,2.00
2023-04-07T06:05:15.566Z,2.00
2023-04-07T06:07:43.190Z,2.10
2023-04-07T06:10:11.487Z,2.00
2023-04-07T06:12:39.096Z,2.10
2023-04-07T06:15:07.097Z,2.10
2023-04-07T06:17:34.727Z,2.10
2023-04-07T06:20:02.304Z,2.20
2023-04-07T06:22:33.450Z,2.20
2023-04-07T06:25:01.225Z,2.30
2023-04-07T06:27:28.793Z,2.40
2023-04-07T06:30:01.414Z,2.30
2023-04-07T06:32:29.033Z,2.50
2023-04-07T06:34:58.032Z,2.50
2023-04-07T06:37:26.190Z,2.70
2023-04-07T06:39:55.321Z,2.70
2023-04-07T06:42:22.862Z,2.70
2023-04-07T06:44:59.336Z,3.00
2023-04-07T06:47:26.957Z,3.00
2023-04-07T06:49:54.475Z,3.20
2023-04-07T06:52:22.064Z,3.50
2023-04-07T06:54:49.601Z,3.90
2023-04-07T06:57:17.406Z,3.90
2023-04-07T06:59:45.140Z,4.20
2023-04-07T07:02:13.056Z,4.40
2023-04-07T07:04:41.211Z,4.60
2023-04-07T07:07:09.908Z,4.80
2023-04-07T07:09:37.754Z,4.90
2023-04-07T07:12:06.478Z,5.20
2023-04-07T07:14:34.101Z,5.20
2023-04-07T07:17:02.029Z,5.40
2023-04-07T07:19:30.055Z,5.60
2023-04-07T07:21:58.011Z,5.90
2023-04-07T07:24:26.129Z,6.20
2023-04-07T07:26:54.510Z,6.20
2023-04-07T07:29:22.495Z,6.50
2023-04-07T07:31:50.249Z,6.70
2023-04-07T07:34:18.415Z,6.90
2023-04-07T07:36:46.606Z,7.00
2023-04-07T07:39:14.676Z,7.20
2023-04-07T07:41:42.398Z,7.70
2023-04-07T07:44:10.219Z,7.50
2023-04-07T07:46:38.086Z,7.70
2023-04-07T07:49:06.052Z,8.00
2023-04-07T07:51:33.680Z,8.20
2023-04-07T07:54:01.435Z,8.40
2023-04-07T07:56:29.228Z,8.50
2023-04-07T07:58:58.311Z,8.70
2023-04-07T08:01:26.379Z,8.90
2023-04-07T08:03:54.709Z,9.00
2023-04-07T08:06:22.913Z,9.10
2023-04-07T08:08:51.000Z,9.10
2023-04-07T08:11:18.705Z,9.20
2023-04-07T08:13:46.661Z,9.20
2023-04-07T08:16:14.653Z,9.30
2023-04-07T08:18:42.293Z,9.40
2023-04-07T08:21:09.883Z,9.60
2023-04-07T08:23:37.470Z,9.60
2023-04-07T08:26:05.860Z,8.70
2023-04-07T08:28:33.548Z,9.80
2023-04-07T08:31:01.113Z,10.00
2023-04-07T08:33:28.657Z,10.10
2023-04-07T08:35:56.949Z,10.30
2023-04-07T08:38:24.636Z,10.50
2023-04-07T08:40:59.551Z,11.00
2023-04-07T08:43:28.578Z,11.10
2023-04-07T08:45:57.832Z,11.40
2023-04-07T08:48:27.299Z,11.60
2023-04-07T08:50:55.543Z,12.10
2023-04-07T08:53:32.889Z,12.20
2023-04-07T08:56:02.291Z,12.50
2023-04-07T08:58:30.899Z,12.80
2023-04-07T09:00:58.858Z,13.20
2023-04-07T09:03:27.115Z,13.30
2023-04-07T09:05:56.628Z,13.70
2023-04-07T09:08:24.216Z,14.00
2023-04-07T09:10:52.183Z,14.40
2023-04-07T09:13:19.837Z,14.70
2023-04-07T09:15:47.771Z,14.70
2023-04-07T09:18:16.511Z,15.10
2023-04-07T09:21:05.576Z,15.50
2023-04-07T09:23:38.052Z,15.60
2023-04-07T09:26:24.987Z,15.90
2023-04-07T09:29:02.798Z,16.40
2023-04-07T09:31:48.221Z,16.70
2023-04-07T09:34:33.354Z,16.80
2023-04-07T09:37:02.128Z,16.90
2023-04-07T09:39:29.920Z,17.00
2023-04-07T09:41:58.082Z,17.30
2023-04-07T09:44:26.737Z,17.50
2023-04-07T09:46:57.010Z,17.70
2023-04-07T09:49:26.150Z,17.90
2023-04-07T09:52:04.941Z,18.10
2023-04-07T09:54:36.591Z,18.20
2023-04-07T09:57:06.775Z,18.40
2023-04-07T09:59:38.341Z,18.50
2023-04-07T10:02:08.941Z,18.60
2023-04-07T10:04:37.580Z,18.70
2023-04-07T10:07:05.777Z,19.00
2023-04-07T10:09:33.590Z,19.30
2023-04-07T10:12:01.365Z,19.80
2023-04-07T10:14:31.807Z,20.00
2023-04-07T10:17:01.705Z,20.10
2023-04-07T10:19:34.578Z,20.00
2023-04-07T10:22:05.564Z,20.20
2023-04-07T10:25:00.114Z,20.30
2023-04-07T10:27:41.195Z,20.50
2023-04-07T10:30:18.215Z,20.70
2023-04-07T10:32:48.728Z,20.80
2023-04-07T10:35:17.318Z,20.90
2023-04-07T10:38:06.964Z,20.80
2023-04-07T10:40:36.378Z,20.70
2023-04-07T10:43:05.216Z,20.70
2023-04-07T10:45:54.505Z,20.60
2023-04-07T10:48:22.916Z,20.70
2023-04-07T10:51:15.384Z,21.20
2023-04-07T10:54:20.949Z,21.40
2023-04-07T10:57:03.736Z,21.50
2023-04-07T10:59:32.205Z,21.40
2023-04-07T11:02:15.028Z,21.40
2023-04-07T11:04:46.962Z,21.60
2023-04-07T11:07:16.562Z,21.60
2023-04-07T11:09:44.300Z,21.70
2023-04-07T11:12:24.655Z,22.00
2023-04-07T11:14:52.849Z,22.40
2023-04-07T11:17:20.381Z,22.80
2023-04-07T11:19:54.436Z,22.80
2023-04-07T11:22:29.875Z,22.80
2023-04-07T11:24:58.745Z,22.90
2023-04-07T11:27:27.318Z,23.10
2023-04-07T11:29:55.407Z,23.20
2023-04-07T11:32:29.718Z,23.30
2023-04-07T11:34:57.874Z,23.30
2023-04-07T11:37:28.742Z,23.20
2023-04-07T11:39:58.420Z,23.00
2023-04-07T11:42:36.721Z,23.10
2023-04-07T11:45:06.007Z,23.50
2023-04-07T11:47:39.354Z,23.80
2023-04-07T11:50:08.259Z,23.50
2023-04-07T11:52:47.480Z,23.50
2023-04-07T11:55:21.547Z,23.40
2023-04-07T11:57:51.959Z,23.80
2023-04-07T12:00:20.790Z,24.00
2023-04-07T12:02:48.781Z,23.90
2023-04-07T12:05:16.610Z,23.70
2023-04-07T12:07:54.087Z,23.50
2023-04-07T12:10:23.681Z,23.30
2023-04-07T12:12:51.726Z,23.40
2023-04-07T12:15:20.636Z,23.60
2023-04-07T12:17:49.298Z,24.00
2023-04-07T12:20:17.027Z,24.80
2023-04-07T12:22:44.674Z,24.80
2023-04-07T12:25:12.260Z,25.10
2023-04-07T12:27:43.636Z,25.40
2023-04-07T12:30:13.303Z,25.70
2023-04-07T12:32:41.170Z,25.70
2023-04-07T12:35:08.798Z,25.80
2023-04-07T12:37:37.443Z,25.80
2023-04-07T12:40:05.489Z,26.10
2023-04-07T12:42:33.056Z,26.30
2023-04-07T12:45:00.825Z,26.40
2023-04-07T12:47:28.355Z,26.50
2023-04-07T12:49:56.352Z,27.00
2023-04-07T12:52:23.880Z,27.00
2023-04-07T12:54:51.561Z,27.10
2023-04-07T12:57:19.184Z,27.10
2023-04-07T12:59:46.843Z,27.10
2023-04-07T13:02:14.917Z,26.90
2023-04-07T13:04:46.548Z,26.60
2023-04-07T13:07:14.580Z,26.40
2023-04-07T13:09:43.620Z,26.20
2023-04-07T13:12:11.973Z,25.90
2023-04-07T13:14:52.869Z,25.60
2023-04-07T13:17:27.126Z,25.60
2023-04-07T13:19:55.802Z,25.80
2023-04-07T13:22:24.644Z,26.20
2023-04-07T13:24:52.475Z,26.40
2023-04-07T13:27:20.063Z,26.60
2023-04-07T13:29:47.745Z,26.70
2023-04-07T13:32:15.922Z,26.70
2023-04-07T13:34:44.039Z,26.60
2023-04-07T13:37:11.657Z,25.50
2023-04-07T13:39:39.169Z,26.60
2023-04-07T13:42:07.087Z,26.10
2023-04-07T13:44:35.052Z,25.90
2023-04-07T13:47:03.397Z,25.80
2023-04-07T13:49:31.024Z,25.70
2023-04-07T13:51:58.661Z,25.60
2023-04-07T13:54:26.198Z,25.70
2023-04-07T13:56:54.025Z,25.50
2023-04-07T13:59:21.538Z,25.50
2023-04-07T14:01:49.227Z,26.10
2023-04-07T14:04:17.349Z,26.50
2023-04-07T14:06:45.069Z,26.90
2023-04-07T14:09:12.613Z,27.20
2023-04-07T14:11:40.593Z,27.20
2023-04-07T14:14:08.362Z,27.20
2023-04-07T14:16:36.107Z,27.30
2023-04-07T14:19:04.814Z,27.40
2023-04-07T14:21:32.609Z,27.50
2023-04-07T14:24:00.506Z,27.50
2023-04-07T14:26:28.179Z,27.60
2023-04-07T14:28:55.673Z,27.70
2023-04-07T14:31:23.356Z,27.40
2023-04-07T14:33:51.361Z,27.30
2023-04-07T14:36:19.351Z,27.20
2023-04-07T14:38:47.050Z,27.00
2023-04-07T14:41:14.749Z,27.00
2023-04-07T14:43:42.642Z,27.00
2023-04-07T14:46:10.432Z,27.10
2023-04-07T14:48:38.014Z,27.30
2023-04-07T14:51:12.585Z,27.10
2023-04-07T14:53:43.792Z,26.90
2023-04-07T14:56:11.792Z,26.50
2023-04-07T14:58:40.709Z,26.00
2023-04-07T15:01:08.720Z,26.00
2023-04-07T15:03:36.871Z,26.10
2023-04-07T15:06:10.041Z,26.10
2023-04-07T15:08:38.398Z,26.10
2023-04-07T15:11:09.921Z,26.00
2023-04-07T15:13:37.788Z,26.00
2023-04-07T15:16:13.707Z,26.00
2023-04-07T15:18:44.411Z,26.30
2023-04-07T15:21:13.547Z,26.20
2023-04-07T15:23:41.923Z,26.10
2023-04-07T15:26:10.742Z,26.00
2023-04-07T15:28:39.035Z,25.90
2023-04-07T15:31:08.865Z,25.90
2023-04-07T15:33:38.113Z,25.90
2023-04-07T15:36:06.808Z,25.80
2023-04-07T15:38:35.250Z,25.80
2023-04-07T15:41:02.871Z,26.10
2023-04-07T15:43:30.570Z,26.10
2023-04-07T15:45:58.277Z,26.30
2023-04-07T15:48:26.080Z,26.60
2023-04-07T15:50:54.080Z,26.60
2023-04-07T15:53:21.881Z,26.60
2023-04-07T15:55:49.582Z,26.60
2023-04-07T15:58:17.549Z,26.40
2023-04-07T16:00:45.361Z,26.10
2023-04-07T16:03:13.072Z,26.00
2023-04-07T16:05:40.872Z,25.70
2023-04-07T16:08:08.440Z,25.40
2023-04-07T16:10:36.144Z,24.90
2023-04-07T16:13:03.817Z,24.80
2023-04-07T16:15:40.066Z,24.80
2023-04-07T16:18:12.465Z,24.80
2023-04-07T16:20:40.617Z,24.60
2023-04-07T16:23:09.101Z,24.50
2023-04-07T16:25:37.054Z,24.50
2023-04-07T16:28:04.771Z,24.40
2023-04-07T16:30:32.423Z,24.40
2023-04-07T16:33:00.657Z,24.40
2023-04-07T16:35:29.245Z,24.30
2023-04-07T16:38:01.566Z,24.30
2023-04-07T16:40:29.414Z,23.90
2023-04-07T16:42:56.955Z,23.80
2023-04-07T16:45:24.714Z,23.80
2023-04-07T16:47:52.315Z,23.70
2023-04-07T16:50:20.111Z,23.40
2023-04-07T16:52:48.010Z,23.00
2023-04-07T16:55:15.805Z,22.90
2023-04-07T16:57:43.526Z,22.80
2023-04-07T17:00:11.849Z,22.70
2023-04-07T17:02:39.681Z,22.40
2023-04-07T17:05:07.902Z,22.10
2023-04-07T17:07:35.438Z,21.70
2023-04-07T17:10:03.671Z,21.30
2023-04-07T17:12:31.170Z,20.80
2023-04-07T17:14:58.769Z,20.40
2023-04-07T17:17:26.620Z,20.00
2023-04-07T17:19:56.257Z,19.50
2023-04-07T17:22:24.903Z,18.80
2023-04-07T17:24:52.552Z,18.50
2023-04-07T17:27:20.106Z,18.10
2023-04-07T17:29:47.706Z,17.80
2023-04-07T17:32:15.284Z,17.40
2023-04-07T17:34:42.843Z,17.20
2023-04-07T17:37:10.371Z,17.00
2023-04-07T17:39:37.905Z,16.70
2023-04-07T17:42:05.575Z,16.50
2023-04-07T17:44:34.234Z,16.40
2023-04-07T17:47:02.578Z,16.20
2023-04-07T17:49:30.466Z,15.90
2023-04-07T17:51:59.136Z,15.80
2023-04-07T17:54:27.211Z,15.70
2023-04-07T17:56:55.530Z,15.60
2023-04-07T17:59:23.114Z,15.50
2023-04-07T18:01:50.818Z,15.30
2023-04-07T18:04:18.611Z,15.30
2023-04-07T18:06:46.235Z,15.10
2023-04-07T18:09:13.894Z,14.90
2023-04-07T18:11:41.549Z,14.80
2023-04-07T18:14:09.276Z,14.70
2023-04-07T18:16:36.827Z,14.50
2023-04-07T18:19:04.601Z,14.40
2023-04-07T18:21:32.188Z,14.20
2023-04-07T18:23:59.760Z,14.20
2023-04-07T18:26:27.347Z,14.10
2023-04-07T18:28:54.935Z,14.00
2023-04-07T18:31:22.505Z,13.70
2023-04-07T18:33:50.455Z,13.70
2023-04-07T18:36:19.036Z,13.60
2023-04-07T18:38:46.651Z,13.40
2023-04-07T18:41:14.223Z,13.40
2023-04-07T18:43:42.294Z,13.30
2023-04-07T18:46:09.847Z,13.20
2023-04-07T18:48:37.525Z,13.10
2023-04-07T18:51:05.186Z,12.90
2023-04-07T18:53:32.805Z,12.80
2023-04-07T18:56:00.446Z,12.70
2023-04-07T18:58:28.332Z,12.60
2023-04-07T19:00:56.136Z,12.40
2023-04-07T19:03:24.075Z,12.30
2023-04-07T19:05:52.906Z,12.20
2023-04-07T19:08:21.577Z,12.00
2023-04-07T19:10:51.146Z,11.70
2023-04-07T19:13:19.631Z,11.60
2023-04-07T19:15:48.163Z,11.50
2023-04-07T19:18:17.000Z,11.40
2023-04-07T19:20:45.768Z,11.10
2023-04-07T19:23:13.830Z,11.10
2023-04-07T19:25:44.333Z,11.00
2023-04-07T19:28:13.501Z,11.00
2023-04-07T19:30:41.144Z,10.80
2023-04-07T19:33:09.154Z,10.80
2023-04-07T19:35:39.077Z,10.70
2023-04-07T19:38:07.622Z,10.70
2023-04-07T19:40:36.434Z,10.50
2023-04-07T19:43:04.418Z,10.50
2023-04-07T19:45:32.144Z,10.50
2023-04-07T19:48:00.406Z,10.40
2023-04-07T19:53:02.383Z,10.20
2023-04-07T19:55:32.738Z,10.00
2023-04-07T19:58:00.681Z,9.90
2023-04-07T20:00:51.020Z,9.70
2023-04-07T20:03:20.235Z,9.70
2023-04-07T20:05:49.005Z,9.60
2023-04-07T20:08:17.941Z,9.40
2023-04-07T20:10:45.886Z,9.20
2023-04-07T20:13:13.564Z,9.10
2023-04-07T20:15:41.356Z,9.00
2023-04-07T20:18:09.165Z,8.90
2023-04-07T20:20:37.141Z,8.80
2023-04-07T20:23:05.095Z,8.70
2023-04-07T20:25:34.753Z,8.70
2023-04-07T20:28:02.544Z,8.60
2023-04-07T20:30:30.179Z,8.40
2023-04-07T20:32:58.561Z,8.30
2023-04-07T20:35:27.280Z,8.30
2023-04-07T20:37:55.314Z,8.20
2023-04-07T20:40:22.829Z,8.20
2023-04-07T20:42:50.471Z,8.10
2023-04-07T20:45:18.897Z,8.10
2023-04-07T20:47:47.686Z,8.00
2023-04-07T20:50:16.422Z,7.90
2023-04-07T20:52:44.374Z,7.80
2023-04-07T20:55:12.092Z,7.80
2023-04-07T20:57:40.013Z,7.70
2023-04-07T21:00:10.258Z,7.60
2023-04-07T21:02:38.370Z,7.50
2023-04-07T21:05:06.441Z,7.50
2023-04-07T21:07:34.089Z,7.40
2023-04-07T21:10:01.850Z,7.40
2023-04-07T21:12:29.643Z,7.30
2023-04-07T21:14:57.311Z,7.30
2023-04-07T21:17:24.941Z,7.10
2023-04-07T21:19:52.480Z,7.10
2023-04-07T21:22:20.411Z,7.10
2023-04-07T21:24:48.076Z,7.00
2023-04-07T21:27:16.539Z,6.90
2023-04-07T21:29:44.231Z,6.80
2023-04-07T21:32:12.236Z,6.70
2023-04-07T21:34:40.353Z,6.70
2023-04-07T21:37:08.401Z,6.70
2023-04-07T21:39:36.018Z,6.60
2023-04-07T21:42:03.669Z,6.60
2023-04-07T21:44:31.932Z,6.60
2023-04-07T21:46:59.512Z,6.50
2023-04-07T21:49:27.557Z,6.50
2023-04-07T21:51:55.276Z,6.40
2023-04-07T21:54:23.212Z,6.40
2023-04-07T21:56:52.598Z,6.30
2023-04-07T21:59:20.163Z,6.30
2023-04-07T22:01:47.822Z,6.10
2023-04-07T22:04:16.096Z,6.00
2023-04-07T22:06:43.844Z,6.00
2023-04-07T22:09:11.759Z,5.90
2023-04-07T22:11:39.397Z,5.80
2023-04-07T22:14:06.949Z,5.80
2023-04-07T22:16:35.124Z,5.80
2023-04-07T22:19:03.444Z,5.80
2023-04-07T22:21:31.539Z,5.90
2023-04-07T22:23:59.095Z,5.90
2023-04-07T22:26:26.781Z,5.80
2023-04-07T22:28:54.331Z,5.80
2023-04-07T22:31:22.002Z,5.60
2023-04-07T22:33:49.613Z,5.60
2023-04-07T22:36:17.193Z,5.50
2023-04-07T22:38:44.682Z,5.30
2023-04-07T22:41:12.256Z,5.20
2023-04-07T22:43:39.800Z,5.20
2023-04-07T22:46:07.421Z,5.20
2023-04-07T22:48:34.921Z,5.20
2023-04-07T22:51:02.508Z,5.10
2023-04-07T22:53:30.009Z,5.10
2023-04-07T22:55:57.608Z,4.90
2023-04-07T22:58:25.423Z,5.00
2023-04-07T23:00:53.041Z,4.80
2023-04-07T23:03:21.129Z,4.80
2023-04-07T23:05:48.777Z,4.80
2023-04-07T23:08:16.450Z,4.80
2023-04-07T23:10:44.041Z,4.70
2023-04-07T23:13:12.345Z,4.70
2023-04-07T23:18:07.800Z,4.60
2023-04-07T23:20:36.085Z,4.60
2023-04-07T23:23:03.727Z,4.60
2023-04-07T23:25:31.314Z,4.50
2023-04-07T23:27:59.094Z,4.50
2023-04-07T23:30:27.329Z,4.50
2023-04-07T23:32:54.863Z,4.40
2023-04-07T23:35:22.565Z,4.40
2023-04-07T23:37:50.292Z,4.40
2023-04-07T23:40:17.921Z,4.40
2023-04-07T23:42:45.662Z,4.40
2023-04-07T23:45:13.286Z,4.30
2023-04-07T23:47:41.066Z,4.20
2023-04-07T23:50:09.113Z,4.20
2023-04-07T23:52:36.670Z,4.20
2023-04-07T23:55:04.510Z,4.20
2023-04-07T23:57:32.030Z,4.20
2023-04-07T23:59:59.597Z,4.20
